createdAt,value
2023-03-06T00:00:17.611Z,0.28
2023-03-06T00:02:45.672Z,0.56
2023-03-06T00:05:14.059Z,0.46
2023-03-06T00:07:42.701Z,0.37
2023-03-06T00:10:14.261Z,0.50
2023-03-06T00:12:42.510Z,0.43
2023-03-06T00:15:13.092Z,0.47
2023-03-06T00:17:41.524Z,0.62
2023-03-06T00:20:11.691Z,0.52
2023-03-06T00:22:40.034Z,0.58
2023-03-06T00:25:12.369Z,0.67
2023-03-06T00:27:40.388Z,0.56
2023-03-06T00:30:09.841Z,0.47
2023-03-06T00:32:39.293Z,0.50
2023-03-06T00:35:08.177Z,0.49
2023-03-06T00:37:36.884Z,0.21
2023-03-06T00:40:06.245Z,0.09
2023-03-06T00:42:34.170Z,0.19
2023-03-06T00:45:02.086Z,0.19
2023-03-06T00:47:29.958Z,0.24
2023-03-06T00:50:00.464Z,0.24
2023-03-06T00:52:28.466Z,0.29
2023-03-06T00:54:56.416Z,0.14
2023-03-06T00:57:24.467Z,0.34
2023-03-06T00:59:52.385Z,0.30
2023-03-06T01:02:22.159Z,0.34
2023-03-06T01:04:50.231Z,0.35
2023-03-06T01:07:19.458Z,0.33
2023-03-06T01:09:47.350Z,0.21
2023-03-06T01:12:16.145Z,0.06
2023-03-06T01:14:44.090Z,0.29
2023-03-06T01:17:12.142Z,0.23
2023-03-06T01:19:40.069Z,0.10
2023-03-06T01:22:07.976Z,0.18
2023-03-06T01:24:37.211Z,0.12
2023-03-06T01:27:05.112Z,0.17
2023-03-06T01:29:33.061Z,0.37
2023-03-06T01:32:01.006Z,0.38
2023-03-06T01:34:29.095Z,0.38
2023-03-06T01:36:56.958Z,0.40
2023-03-06T01:39:25.002Z,0.36
2023-03-06T01:41:54.512Z,0.47
2023-03-06T01:44:23.344Z,0.42
2023-03-06T01:46:51.324Z,0.31
2023-03-06T01:49:22.108Z,0.54
2023-03-06T01:51:53.982Z,0.49
2023-03-06T01:54:25.032Z,0.48
2023-03-06T01:56:57.695Z,0.30
2023-03-06T01:59:27.516Z,0.40
2023-03-06T02:01:57.030Z,0.44
2023-03-06T02:04:25.681Z,0.55
2023-03-06T02:06:53.934Z,0.43
2023-03-06T02:09:21.874Z,0.43
2023-03-06T02:11:50.654Z,0.48
2023-03-06T02:14:19.935Z,0.56
2023-03-06T02:16:48.926Z,0.36
2023-03-06T02:19:29.469Z,0.39
2023-03-06T02:21:57.733Z,0.55
2023-03-06T02:24:36.040Z,0.61
2023-03-06T02:27:06.745Z,0.68
2023-03-06T02:29:34.741Z,0.68
2023-03-06T02:32:04.714Z,0.66
2023-03-06T02:34:51.539Z,0.78
2023-03-06T02:37:19.829Z,0.85
2023-03-06T02:39:53.036Z,0.86
2023-03-06T02:42:25.911Z,0.90
2023-03-06T02:44:56.689Z,0.90
2023-03-06T02:47:24.603Z,0.97
2023-03-06T02:49:52.583Z,1.01
2023-03-06T02:52:20.548Z,1.08
2023-03-06T02:54:48.618Z,1.09
2023-03-06T02:57:16.705Z,1.14
2023-03-06T02:59:45.990Z,1.20
2023-03-06T03:02:13.975Z,1.26
2023-03-06T03:04:41.905Z,1.37
2023-03-06T03:07:10.388Z,1.34
2023-03-06T03:09:38.993Z,1.34
2023-03-06T03:12:07.779Z,1.45
2023-03-06T03:14:36.004Z,1.50
2023-03-06T03:17:05.952Z,1.38
2023-03-06T03:19:33.905Z,1.38
2023-03-06T03:22:01.952Z,1.41
2023-03-06T03:24:29.889Z,1.36
2023-03-06T03:26:57.852Z,1.44
2023-03-06T03:29:26.520Z,1.44
2023-03-06T03:31:55.273Z,1.48
2023-03-06T03:34:27.552Z,1.45
2023-03-06T03:36:55.777Z,1.52
2023-03-06T03:39:24.047Z,1.58
2023-03-06T03:41:52.058Z,1.64
2023-03-06T03:44:20.752Z,1.65
2023-03-06T03:46:49.678Z,1.68
2023-03-06T03:49:21.642Z,1.74
2023-03-06T03:51:51.328Z,1.78
2023-03-06T03:54:20.183Z,1.84
2023-03-06T03:56:50.376Z,1.80
2023-03-06T03:59:24.438Z,1.89
2023-03-06T04:02:18.424Z,1.87
2023-03-06T04:04:54.182Z,2.01
2023-03-06T04:07:23.682Z,2.03
2023-03-06T04:09:51.793Z,2.05
2023-03-06T04:12:20.028Z,2.03
2023-03-06T04:14:48.562Z,2.04
2023-03-06T04:17:16.745Z,2.00
2023-03-06T04:19:45.412Z,1.88
2023-03-06T04:22:13.508Z,1.79
2023-03-06T04:24:42.963Z,1.66
2023-03-06T04:27:11.180Z,1.61
2023-03-06T04:29:39.104Z,1.40
2023-03-06T04:32:08.005Z,1.50
2023-03-06T04:34:36.035Z,1.61
2023-03-06T04:37:04.071Z,1.51
2023-03-06T04:39:34.183Z,1.46
2023-03-06T04:42:03.663Z,1.20
2023-03-06T04:44:31.543Z,1.35
2023-03-06T04:46:59.410Z,1.40
2023-03-06T04:49:27.291Z,1.25
2023-03-06T04:51:55.140Z,1.00
2023-03-06T04:54:23.077Z,1.23
2023-03-06T04:56:51.051Z,1.22
2023-03-06T04:59:20.350Z,1.21
2023-03-06T05:01:48.293Z,1.18
2023-03-06T05:04:16.227Z,1.08
2023-03-06T05:06:44.172Z,1.09
2023-03-06T05:09:12.132Z,1.09
2023-03-06T05:11:40.010Z,1.00
2023-03-06T05:14:07.971Z,1.05
2023-03-06T05:16:37.329Z,0.96
2023-03-06T05:19:05.306Z,0.98
2023-03-06T05:21:33.196Z,0.97
2023-03-06T05:24:01.077Z,0.90
2023-03-06T05:26:28.999Z,0.86
2023-03-06T05:28:56.904Z,0.94
2023-03-06T05:31:24.957Z,0.87
2023-03-06T05:33:56.201Z,0.81
2023-03-06T05:36:24.137Z,0.87
2023-03-06T05:38:52.054Z,0.77
2023-03-06T05:41:20.042Z,0.71
2023-03-06T05:43:48.565Z,0.69
2023-03-06T05:46:16.530Z,0.74
2023-03-06T05:48:46.784Z,0.73
2023-03-06T05:51:16.364Z,0.72
2023-03-06T05:53:44.332Z,0.76
2023-03-06T05:56:12.324Z,0.73
2023-03-06T05:58:40.852Z,0.67
2023-03-06T06:01:10.907Z,0.67
2023-03-06T06:03:39.220Z,0.62
2023-03-06T06:06:08.820Z,0.73
2023-03-06T06:08:38.261Z,0.78
2023-03-06T06:11:06.670Z,0.72
2023-03-06T06:13:34.747Z,0.42
2023-03-06T06:16:08.559Z,0.51
2023-03-06T06:18:37.316Z,0.74
2023-03-06T06:21:07.813Z,0.63
2023-03-06T06:23:35.925Z,0.81
2023-03-06T06:26:07.798Z,0.82
2023-03-06T06:28:36.085Z,0.86
2023-03-06T06:31:10.947Z,0.75
2023-03-06T06:33:39.100Z,0.63
2023-03-06T06:36:15.294Z,0.75
2023-03-06T06:38:44.173Z,0.68
2023-03-06T06:44:07.247Z,0.78
2023-03-06T06:47:20.738Z,0.72
2023-03-06T06:49:25.226Z,0.74
2023-03-06T06:51:53.167Z,0.73
2023-03-06T06:54:22.319Z,0.79
2023-03-06T06:56:51.707Z,0.74
2023-03-06T06:59:19.718Z,0.44
2023-03-06T07:01:47.810Z,0.56
2023-03-06T07:04:19.096Z,0.68
2023-03-06T07:06:47.697Z,0.56
2023-03-06T07:09:16.088Z,0.55
2023-03-06T07:11:46.384Z,0.62
2023-03-06T07:14:15.827Z,0.73
2023-03-06T07:16:45.403Z,0.76
2023-03-06T07:19:14.407Z,0.83
2023-03-06T07:21:42.362Z,0.53
2023-03-06T07:24:13.370Z,0.57
2023-03-06T07:26:41.221Z,0.53
2023-03-06T07:29:09.077Z,0.61
2023-03-06T07:31:38.669Z,0.76
2023-03-06T07:34:06.674Z,0.85
2023-03-06T07:36:34.885Z,0.80
2023-03-06T07:39:02.834Z,0.74
2023-03-06T07:41:30.736Z,0.82
2023-03-06T07:43:58.718Z,0.84
2023-03-06T07:46:26.854Z,0.73
2023-03-06T07:48:56.437Z,0.85
2023-03-06T07:51:27.012Z,0.54
2023-03-06T07:53:55.379Z,0.86
2023-03-06T07:56:24.247Z,0.82
2023-03-06T07:58:56.112Z,0.79
2023-03-06T08:01:25.043Z,0.80
2023-03-06T08:03:53.673Z,0.83
2023-03-06T08:06:27.814Z,0.78
2023-03-06T08:08:56.975Z,0.85
2023-03-06T08:11:26.695Z,0.91
2023-03-06T08:13:56.567Z,0.87
2023-03-06T08:16:27.631Z,0.69
2023-03-06T08:18:56.145Z,0.86
2023-03-06T08:21:26.906Z,0.92
2023-03-06T08:23:57.222Z,0.90
2023-03-06T08:26:27.677Z,1.06
2023-03-06T08:28:57.196Z,1.08
2023-03-06T08:31:27.990Z,1.17
2023-03-06T08:33:57.602Z,0.96
2023-03-06T08:36:27.097Z,1.04
2023-03-06T08:38:55.436Z,1.15
2023-03-06T08:41:23.850Z,0.89
2023-03-06T08:43:52.537Z,0.96
2023-03-06T08:46:23.263Z,1.12
2023-03-06T08:48:51.229Z,1.10
2023-03-06T08:51:19.517Z,1.14
2023-03-06T08:53:49.290Z,1.03
2023-03-06T08:56:19.090Z,0.76
2023-03-06T08:58:47.982Z,1.03
2023-03-06T09:01:18.214Z,1.18
2023-03-06T09:03:46.789Z,1.07
2023-03-06T09:06:15.600Z,1.10
2023-03-06T09:08:44.570Z,1.09
2023-03-06T09:11:16.748Z,1.22
2023-03-06T09:13:45.152Z,1.19
2023-03-06T09:16:13.699Z,1.12
2023-03-06T09:18:41.745Z,1.28
2023-03-06T09:21:10.617Z,1.13
2023-03-06T09:23:40.014Z,1.02
2023-03-06T09:26:08.745Z,1.11
2023-03-06T09:28:39.250Z,0.90
2023-03-06T09:31:10.319Z,0.93
2023-03-06T09:33:40.025Z,1.16
2023-03-06T09:36:11.373Z,1.01
2023-03-06T09:38:39.456Z,0.96
2023-03-06T09:41:16.206Z,0.92
2023-03-06T09:43:48.100Z,1.01
2023-03-06T09:46:22.906Z,0.97
2023-03-06T09:49:10.270Z,1.02
2023-03-06T09:51:52.430Z,0.76
2023-03-06T09:54:27.785Z,0.86
2023-03-06T09:56:56.220Z,0.90
2023-03-06T09:59:27.106Z,1.17
2023-03-06T10:02:00.912Z,1.17
2023-03-06T10:04:37.776Z,1.05
2023-03-06T10:07:13.070Z,0.87
2023-03-06T10:09:47.734Z,0.74
2023-03-06T10:12:20.206Z,0.93
2023-03-06T10:15:00.743Z,0.94
2023-03-06T10:17:35.540Z,1.05
2023-03-06T10:20:16.364Z,1.05
2023-03-06T10:23:01.409Z,0.98
2023-03-06T10:25:37.884Z,1.07
2023-03-06T10:28:16.554Z,1.29
2023-03-06T10:30:52.597Z,1.23
2023-03-06T10:33:34.301Z,0.96
2023-03-06T10:36:02.623Z,0.73
2023-03-06T10:38:37.651Z,0.81
2023-03-06T10:41:09.353Z,0.80
2023-03-06T10:43:38.914Z,0.80
2023-03-06T10:46:10.285Z,0.81
2023-03-06T10:48:42.014Z,0.79
2023-03-06T10:51:19.443Z,0.69
2023-03-06T10:53:53.718Z,0.82
2023-03-06T10:56:29.228Z,0.72
2023-03-06T10:59:09.134Z,0.95
2023-03-06T11:01:39.747Z,0.99
2023-03-06T11:04:24.153Z,1.01
2023-03-06T11:07:14.446Z,1.14
2023-03-06T11:09:43.246Z,0.93
2023-03-06T11:12:25.994Z,0.90
2023-03-06T11:15:17.431Z,0.77
2023-03-06T11:18:02.822Z,0.87
2023-03-06T11:20:50.146Z,1.09
2023-03-06T11:23:22.756Z,1.25
2023-03-06T11:25:56.168Z,1.15
2023-03-06T11:28:29.846Z,1.14
2023-03-06T11:31:03.089Z,1.31
2023-03-06T11:33:39.664Z,1.20
2023-03-06T11:36:16.994Z,1.08
2023-03-06T11:38:50.070Z,1.26
2023-03-06T11:41:27.902Z,1.36
2023-03-06T11:44:04.442Z,1.25
2023-03-06T11:46:38.064Z,1.26
2023-03-06T11:49:18.140Z,1.39
2023-03-06T11:51:55.751Z,1.37
2023-03-06T11:54:24.324Z,1.51
2023-03-06T11:56:57.690Z,1.52
2023-03-06T12:00:00.012Z,1.65
2023-03-06T12:02:40.327Z,1.48
2023-03-06T12:05:33.773Z,1.51
2023-03-06T12:08:16.142Z,1.70
2023-03-06T12:10:51.898Z,1.75
2023-03-06T12:13:59.513Z,1.88
2023-03-06T12:16:54.164Z,1.65
2023-03-06T12:19:34.241Z,1.69
2023-03-06T12:22:22.464Z,1.81
2023-03-06T12:25:20.283Z,2.04
2023-03-06T12:27:59.365Z,2.22
2023-03-06T12:30:54.754Z,2.18
2023-03-06T12:33:29.988Z,1.89
2023-03-06T12:36:13.275Z,2.20
2023-03-06T12:39:08.402Z,2.40
2023-03-06T12:41:41.652Z,2.49
2023-03-06T12:44:49.984Z,2.81
2023-03-06T12:47:22.859Z,2.75
2023-03-06T12:49:55.941Z,2.68
2023-03-06T12:52:30.308Z,2.76
2023-03-06T12:55:00.934Z,2.76
2023-03-06T12:57:29.162Z,2.33
2023-03-06T13:00:00.037Z,2.90
2023-03-06T13:02:59.359Z,2.90
2023-03-06T13:05:48.345Z,2.39
2023-03-06T13:08:52.754Z,2.76
2023-03-06T13:11:31.652Z,3.43
2023-03-06T13:13:59.687Z,3.30
2023-03-06T13:16:31.671Z,3.14
2023-03-06T13:19:04.874Z,2.53
2023-03-06T13:22:14.318Z,2.82
2023-03-06T13:24:43.901Z,2.92
2023-03-06T13:27:33.891Z,2.95
2023-03-06T13:30:24.308Z,2.95
2023-03-06T13:32:53.798Z,2.77
2023-03-06T13:35:52.504Z,2.80
2023-03-06T13:39:04.889Z,2.96
2023-03-06T13:41:55.015Z,3.12
2023-03-06T13:44:50.775Z,3.34
2023-03-06T13:48:05.864Z,3.50
2023-03-06T13:50:41.030Z,3.58
2023-03-06T13:53:41.715Z,3.54
2023-03-06T13:56:36.151Z,3.62
2023-03-06T13:59:27.002Z,3.68
2023-03-06T14:02:10.400Z,3.55
2023-03-06T14:04:45.139Z,3.89
2023-03-06T14:07:25.817Z,4.00
2023-03-06T14:10:02.162Z,3.59
2023-03-06T14:12:34.919Z,3.43
2023-03-06T14:15:07.191Z,3.24
2023-03-06T14:17:39.348Z,3.33
2023-03-06T14:20:16.555Z,3.19
2023-03-06T14:22:45.208Z,3.30
2023-03-06T14:25:20.773Z,3.35
2023-03-06T14:27:51.439Z,3.26
2023-03-06T14:30:24.223Z,3.30
2023-03-06T14:32:56.172Z,3.46
2023-03-06T14:35:28.579Z,3.41
2023-03-06T14:38:00.645Z,3.29
2023-03-06T14:40:35.150Z,3.25
2023-03-06T14:43:20.786Z,3.24
2023-03-06T14:45:54.822Z,3.34
2023-03-06T14:48:25.791Z,3.43
2023-03-06T14:50:56.529Z,3.41
2023-03-06T14:53:28.288Z,3.54
2023-03-06T14:56:00.051Z,3.45
2023-03-06T14:58:32.360Z,3.18
2023-03-06T15:01:04.761Z,3.39
2023-03-06T15:03:43.801Z,3.26
2023-03-06T15:06:16.672Z,3.39
2023-03-06T15:08:47.109Z,3.48
2023-03-06T15:11:15.623Z,3.54
2023-03-06T15:13:43.634Z,3.26
2023-03-06T15:16:30.159Z,3.65
2023-03-06T15:19:02.376Z,3.73
2023-03-06T15:21:35.891Z,3.70
2023-03-06T15:24:26.146Z,3.74
2023-03-06T15:26:56.912Z,3.73
2023-03-06T15:29:25.009Z,3.53
2023-03-06T15:31:53.031Z,3.61
2023-03-06T15:34:24.761Z,3.57
2023-03-06T15:36:55.700Z,3.64
2023-03-06T15:39:36.340Z,3.72
2023-03-06T15:42:17.981Z,3.62
2023-03-06T15:44:49.803Z,3.55
2023-03-06T15:47:18.284Z,3.47
2023-03-06T15:49:51.722Z,3.52
2023-03-06T15:52:20.817Z,3.00
2023-03-06T15:54:50.010Z,3.04
2023-03-06T15:57:22.981Z,3.39
2023-03-06T15:59:52.295Z,2.82
2023-03-06T16:02:21.749Z,2.77
2023-03-06T16:04:51.909Z,2.71
2023-03-06T16:07:20.533Z,2.52
2023-03-06T16:09:48.688Z,2.43
2023-03-06T16:12:18.658Z,2.55
2023-03-06T16:14:48.242Z,2.76
2023-03-06T16:17:17.747Z,3.00
2023-03-06T16:19:45.881Z,2.97
2023-03-06T16:22:15.767Z,2.69
2023-03-06T16:24:43.774Z,2.57
2023-03-06T16:27:18.612Z,2.52
2023-03-06T16:29:46.603Z,2.65
2023-03-06T16:32:14.682Z,2.75
2023-03-06T16:34:42.637Z,2.64
2023-03-06T16:37:13.845Z,2.56
2023-03-06T16:39:43.591Z,2.34
2023-03-06T16:42:11.664Z,2.24
2023-03-06T16:44:39.692Z,2.45
2023-03-06T16:47:13.292Z,2.54
2023-03-06T16:49:41.400Z,2.29
2023-03-06T16:52:10.973Z,2.48
2023-03-06T16:54:38.965Z,2.58
2023-03-06T16:57:08.463Z,2.17
2023-03-06T16:59:36.529Z,2.02
2023-03-06T17:02:05.010Z,2.40
2023-03-06T17:04:33.151Z,2.02
2023-03-06T17:07:01.128Z,2.11
2023-03-06T17:09:29.328Z,2.02
2023-03-06T17:11:59.734Z,1.76
2023-03-06T17:14:29.825Z,1.69
2023-03-06T17:16:58.704Z,1.85
2023-03-06T17:19:26.675Z,1.76
2023-03-06T17:21:54.674Z,1.99
2023-03-06T17:24:22.746Z,2.68
2023-03-06T17:26:51.296Z,2.01
2023-03-06T17:29:19.568Z,2.65
2023-03-06T17:31:49.258Z,3.16
2023-03-06T17:34:17.328Z,5.16
2023-03-06T17:36:45.622Z,4.51
2023-03-06T17:39:13.830Z,3.19
2023-03-06T17:41:46.274Z,3.39
2023-03-06T17:44:16.379Z,3.63
2023-03-06T17:46:44.769Z,2.97
2023-03-06T17:49:14.120Z,2.07
2023-03-06T17:51:42.039Z,1.86
2023-03-06T17:54:10.106Z,2.03
2023-03-06T17:56:38.892Z,1.62
2023-03-06T17:59:06.816Z,1.34
2023-03-06T18:01:34.945Z,1.20
2023-03-06T18:04:08.831Z,0.91
2023-03-06T18:06:38.623Z,0.86
2023-03-06T18:09:13.671Z,0.56
2023-03-06T18:11:42.239Z,0.59
2023-03-06T18:14:10.526Z,0.46
2023-03-06T18:16:38.575Z,0.58
2023-03-06T18:19:06.731Z,0.52
2023-03-06T18:21:34.642Z,0.69
2023-03-06T18:24:04.050Z,0.37
2023-03-06T18:26:32.140Z,0.29
2023-03-06T18:29:03.689Z,0.13
2023-03-06T18:31:34.714Z,0.22
2023-03-06T18:34:05.718Z,0.17
2023-03-06T18:36:34.310Z,0.07
2023-03-06T18:39:04.670Z,0.00
2023-03-06T18:41:33.121Z,-0.05
2023-03-06T18:44:01.953Z,-0.09
2023-03-06T18:46:32.291Z,-0.14
2023-03-06T18:49:00.773Z,-0.19
2023-03-06T18:51:29.104Z,-0.27
2023-03-06T18:53:58.241Z,-0.10
2023-03-06T18:56:27.555Z,-0.27
2023-03-06T18:58:55.629Z,-0.32
2023-03-06T19:01:24.204Z,-0.38
2023-03-06T19:03:52.202Z,-0.32
2023-03-06T19:06:20.247Z,-0.36
2023-03-06T19:08:48.164Z,-0.48
2023-03-06T19:11:18.017Z,-0.39
2023-03-06T19:13:47.311Z,-0.45
2023-03-06T19:16:19.598Z,-0.48
2023-03-06T19:18:47.763Z,-0.46
2023-03-06T19:21:17.585Z,-0.50
2023-03-06T19:23:45.968Z,-0.54
2023-03-06T19:26:15.135Z,-0.51
2023-03-06T19:28:44.229Z,-0.51
2023-03-06T19:31:16.163Z,-0.55
2023-03-06T19:33:44.243Z,-0.54
2023-03-06T19:36:14.384Z,-0.68
2023-03-06T19:38:42.461Z,-0.58
2023-03-06T19:41:13.579Z,-0.58
2023-03-06T19:43:42.470Z,-0.60
2023-03-06T19:46:14.227Z,-0.64
2023-03-06T19:48:42.436Z,-0.72
2023-03-06T19:51:18.138Z,-0.74
2023-03-06T19:53:46.161Z,-0.72
2023-03-06T19:56:18.783Z,-0.73
2023-03-06T19:58:46.780Z,-0.80
2023-03-06T20:01:17.834Z,-0.83
2023-03-06T20:03:50.494Z,-0.88
2023-03-06T20:06:22.159Z,-0.88
2023-03-06T20:08:50.280Z,-0.96
2023-03-06T20:11:19.110Z,-1.04
2023-03-06T20:13:47.904Z,-1.05
2023-03-06T20:16:17.815Z,-1.05
2023-03-06T20:18:46.451Z,-0.92
2023-03-06T20:21:17.309Z,-1.07
2023-03-06T20:23:45.304Z,-1.03
2023-03-06T20:26:14.839Z,-1.04
2023-03-06T20:28:43.627Z,-1.01
2023-03-06T20:31:14.230Z,-1.03
2023-03-06T20:33:44.278Z,-1.08
2023-03-06T20:36:13.950Z,-1.06
2023-03-06T20:38:41.978Z,-1.00
2023-03-06T20:41:15.269Z,-0.97
2023-03-06T20:43:43.446Z,-1.05
2023-03-06T20:46:13.313Z,-1.06
2023-03-06T20:48:42.974Z,-1.00
2023-03-06T20:51:17.408Z,-0.62
2023-03-06T20:53:45.553Z,-0.76
2023-03-06T20:56:14.314Z,-0.96
2023-03-06T20:58:44.345Z,-0.92
2023-03-06T21:01:19.394Z,-0.99
2023-03-06T21:03:49.221Z,-0.64
2023-03-06T21:06:17.727Z,-0.60
2023-03-06T21:08:45.900Z,-0.91
2023-03-06T21:11:14.314Z,-0.97
2023-03-06T21:13:42.705Z,-1.13
2023-03-06T21:16:17.943Z,-1.17
2023-03-06T21:18:46.299Z,-1.16
2023-03-06T21:21:20.807Z,-1.09
2023-03-06T21:23:49.717Z,-1.20
2023-03-06T21:26:19.768Z,-1.19
2023-03-06T21:28:47.796Z,-1.18
2023-03-06T21:31:17.687Z,-1.20
2023-03-06T21:33:46.669Z,-1.22
2023-03-06T21:36:16.711Z,-1.24
2023-03-06T21:38:44.580Z,-1.18
2023-03-06T21:41:14.986Z,-1.14
2023-03-06T21:43:43.194Z,-1.03
2023-03-06T21:46:11.434Z,-1.17
2023-03-06T21:48:39.953Z,-1.08
2023-03-06T21:51:09.996Z,-1.21
2023-03-06T21:53:43.288Z,-1.18
2023-03-06T21:56:11.876Z,-1.34
2023-03-06T21:58:40.318Z,-1.41
2023-03-06T22:01:12.168Z,-1.33
2023-03-06T22:03:40.504Z,-1.35
2023-03-06T22:06:13.474Z,-1.30
2023-03-06T22:08:43.366Z,-1.29
2023-03-06T22:11:14.349Z,-1.36
2023-03-06T22:13:42.474Z,-1.31
2023-03-06T22:16:10.797Z,-1.35
2023-03-06T22:18:39.804Z,-1.30
2023-03-06T22:21:08.919Z,-1.30
2023-03-06T22:23:36.913Z,-1.21
2023-03-06T22:26:07.930Z,-1.23
2023-03-06T22:28:36.389Z,-1.34
2023-03-06T22:31:07.202Z,-1.18
2023-03-06T22:33:35.172Z,-1.30
2023-03-06T22:36:06.199Z,-1.36
2023-03-06T22:38:35.550Z,-1.37
2023-03-06T22:41:04.437Z,-1.48
2023-03-06T22:43:34.641Z,-1.59
2023-03-06T22:46:03.662Z,-1.62
2023-03-06T22:48:32.399Z,-1.61
2023-03-06T22:51:05.901Z,-1.67
2023-03-06T22:53:34.677Z,-1.63
2023-03-06T22:56:04.833Z,-1.69
2023-03-06T22:58:37.196Z,-1.73
2023-03-06T23:01:10.226Z,-1.67
2023-03-06T23:03:39.652Z,-1.75
2023-03-06T23:06:08.902Z,-1.83
2023-03-06T23:08:37.011Z,-1.84
2023-03-06T23:11:09.909Z,-1.87
2023-03-06T23:13:57.931Z,-1.89
2023-03-06T23:16:44.643Z,-1.92
2023-03-06T23:19:31.616Z,-1.94
2023-03-06T23:22:18.401Z,-2.00
2023-03-06T23:25:05.945Z,-2.01
2023-03-06T23:27:36.223Z,-1.94
2023-03-06T23:30:06.426Z,-1.93
2023-03-06T23:32:34.659Z,-1.71
2023-03-06T23:35:02.849Z,-1.62
2023-03-06T23:37:30.940Z,-1.43
2023-03-06T23:39:59.123Z,-1.47
2023-03-06T23:42:27.014Z,-1.39
2023-03-06T23:44:55.165Z,-1.41
2023-03-06T23:47:24.459Z,-1.22
2023-03-06T23:49:52.365Z,-1.35
2023-03-06T23:52:20.213Z,-1.49
2023-03-06T23:54:49.737Z,-1.39
2023-03-06T23:57:17.658Z,-1.09
2023-03-06T23:59:46.152Z,-1.04
